Time;durP1;ratioP1;P1;durP2;ratioP2;P2;SDS_P1;SDS_P2;PMS_P1;PMS_P2;Temp;Humidity;BMP_temperature;BMP_pressure;BME280_temperature;BME280_humidity;BME280_pressure;Samples;Min_cycle;Max_cycle;Signal;HPM_P1;HPM_P2
2023/03/07 04:54:54;;;;;;;30.62;14.73;;;;;;;2.04;100.00;99377.22;5971810;28;20083;-84
2023/03/07 04:57:58;;;;;;;36.20;16.12;;;;;;;2.01;100.00;99390.78;5272810;33;33620;-85
2023/03/07 05:01:02;;;;;;;36.70;16.52;;;;;;;2.06;100.00;99386.88;5248598;33;34761;-84
2023/03/07 05:04:05;;;;;;;35.33;16.60;;;;;;;2.01;100.00;99385.47;5249150;33;34780;-84
2023/03/07 05:07:08;;;;;;;30.30;14.52;;;;;;;2.00;100.00;99383.81;5249596;33;34147;-84
2023/03/07 05:10:11;;;;;;;35.30;16.62;;;;;;;2.14;100.00;99390.47;5275859;33;34217;-84
2023/03/07 05:13:16;;;;;;;31.70;16.42;;;;;;;2.08;100.00;99390.19;5265138;33;35232;-84
2023/03/07 05:16:19;;;;;;;35.88;15.63;;;;;;;2.00;100.00;99386.47;5275074;33;35494;-84
2023/03/07 05:19:22;;;;;;;36.38;16.83;;;;;;;2.08;100.00;99387.53;5275884;33;35462;-84
2023/03/07 05:22:25;;;;;;;34.72;15.68;;;;;;;2.02;100.00;99387.16;5274342;33;34320;-84
2023/03/07 05:25:28;;;;;;;31.35;16.33;;;;;;;1.96;100.00;99381.59;5248800;33;33961;-85
2023/03/07 05:28:31;;;;;;;31.98;15.35;;;;;;;1.96;100.00;99390.41;5258770;33;35453;-84
2023/03/07 05:31:34;;;;;;;27.42;15.02;;;;;;;1.95;100.00;99395.84;5283133;33;35128;-84
2023/03/07 05:34:40;;;;;;;29.98;15.73;;;;;;;1.95;100.00;99395.84;5278511;33;35133;-84
2023/03/07 05:37:43;;;;;;;35.13;16.08;;;;;;;1.99;100.00;99394.56;5277335;33;35292;-84
2023/03/07 05:40:46;;;;;;;34.35;16.10;;;;;;;2.02;100.00;99395.12;5250442;33;35416;-84
2023/03/07 05:43:49;;;;;;;28.08;14.02;;;;;;;2.25;100.00;99402.66;5271965;33;35157;-84
2023/03/07 05:46:52;;;;;;;34.47;17.23;;;;;;;2.40;100.00;99395.03;5272240;33;33933;-84
2023/03/07 05:49:55;;;;;;;37.08;17.40;;;;;;;2.50;100.00;99399.31;5259831;33;34284;-84
2023/03/07 05:52:59;;;;;;;34.08;16.20;;;;;;;2.56;100.00;99407.66;5248572;33;34245;-84
2023/03/07 05:56:03;;;;;;;30.98;16.15;;;;;;;2.69;100.00;99403.66;5260050;33;34036;-84
2023/03/07 05:59:08;;;;;;;28.40;15.40;;;;;;;2.69;100.00;99402.81;5273327;33;34895;-84
2023/03/07 06:02:11;;;;;;;28.17;15.25;;;;;;;2.77;100.00;99413.53;5260297;33;33696;-84
2023/03/07 06:05:14;;;;;;;31.37;16.45;;;;;;;2.81;100.00;99408.72;5260160;33;33966;-84
2023/03/07 06:08:17;;;;;;;32.40;15.75;;;;;;;2.85;100.00;99407.47;5259749;33;34004;-84
2023/03/07 06:11:21;;;;;;;33.65;16.27;;;;;;;2.86;100.00;99417.91;5260193;33;34565;-84
2023/03/07 06:14:24;;;;;;;33.92;16.30;;;;;;;2.85;100.00;99421.56;5248654;33;33496;-84
2023/03/07 06:17:27;;;;;;;34.72;15.82;;;;;;;2.92;100.00;99419.13;5247979;33;34886;-84
2023/03/07 06:20:30;;;;;;;34.20;17.10;;;;;;;2.90;100.00;99432.59;5259534;33;34077;-84
2023/03/07 06:23:35;;;;;;;34.50;17.48;;;;;;;3.05;100.00;99426.75;5248073;33;33887;-84
2023/03/07 06:26:40;;;;;;;31.60;15.65;;;;;;;3.20;100.00;99435.00;5272466;33;34079;-84
2023/03/07 06:29:43;;;;;;;31.02;16.30;;;;;;;3.23;100.00;99440.84;5248154;33;34818;-84
2023/03/07 06:32:46;;;;;;;38.65;17.90;;;;;;;3.17;100.00;99441.47;5272177;33;33643;-84
2023/03/07 06:35:49;;;;;;;37.67;18.45;;;;;;;3.18;100.00;99440.47;5247723;33;34470;-85
2023/03/07 06:38:52;;;;;;;37.47;19.42;;;;;;;3.30;100.00;99438.41;5259650;33;34063;-86
2023/03/07 06:41:55;;;;;;;35.15;18.25;;;;;;;3.31;100.00;99445.41;5259318;33;34610;-85
2023/03/07 06:44:57;;;;;;;38.40;20.02;;;;;;;3.43;100.00;99446.00;5259707;33;33405;-88
2023/03/07 06:48:02;;;;;;;36.00;19.37;;;;;;;3.48;100.00;99441.03;5226205;34;35361;-89
2023/03/07 06:51:07;;;;;;;46.67;18.62;;;;;;;3.50;100.00;99447.88;5212685;33;34774;-90
2023/03/07 06:54:10;;;;;;;37.42;19.42;;;;;;;3.72;100.00;99443.88;5241633;33;34705;-86
2023/03/07 06:57:13;;;;;;;39.25;19.25;;;;;;;3.87;100.00;99444.13;5245602;33;33589;-86
2023/03/07 07:00:17;;;;;;;36.53;19.58;;;;;;;3.90;100.00;99449.12;5244730;33;34047;-85
2023/03/07 07:03:21;;;;;;;42.20;21.10;;;;;;;4.01;100.00;99445.37;5249468;33;34386;-86
2023/03/07 07:06:24;;;;;;;44.78;21.45;;;;;;;4.12;100.00;99446.91;5253263;33;33875;-86
2023/03/07 07:09:27;;;;;;;43.40;22.30;;;;;;;4.12;100.00;99447.75;5248886;33;34613;-86
2023/03/07 07:12:30;;;;;;;44.30;21.62;;;;;;;4.31;100.00;99444.84;5241611;34;34109;-85
2023/03/07 07:15:34;;;;;;;52.35;23.73;;;;;;;4.53;100.00;99443.44;5242082;33;34419;-85
2023/03/07 07:18:37;;;;;;;44.88;23.83;;;;;;;4.64;100.00;99442.28;5249799;33;34232;-85
2023/03/07 07:21:40;;;;;;;42.30;21.77;;;;;;;4.52;100.00;99447.06;5273347;33;34491;-85
2023/03/07 07:24:44;;;;;;;44.50;22.70;;;;;;;4.54;100.00;99446.94;5254107;33;35554;-85
2023/03/07 07:27:46;;;;;;;43.47;23.23;;;;;;;4.55;100.00;99451.25;5243515;33;34112;-86
2023/03/07 07:30:50;;;;;;;40.33;22.05;;;;;;;4.63;100.00;99455.78;5246476;33;33972;-86
2023/03/07 07:33:53;;;;;;;42.78;23.02;;;;;;;4.90;100.00;99452.00;5273284;33;35408;-86
2023/03/07 07:36:56;;;;;;;45.60;24.35;;;;;;;5.16;100.00;99460.69;5247906;33;35289;-86
2023/03/07 07:39:59;;;;;;;44.55;24.27;;;;;;;5.12;100.00;99456.72;5230511;33;34099;-86
2023/03/07 07:43:02;;;;;;;39.78;19.90;;;;;;;5.33;100.00;99452.72;5255594;33;34891;-86
2023/03/07 07:46:05;;;;;;;39.97;20.65;;;;;;;5.48;100.00;99451.03;5231285;33;33695;-85
2023/03/07 07:49:08;;;;;;;40.55;23.08;;;;;;;5.39;99.66;99458.22;5254993;33;33950;-85
2023/03/07 07:52:11;;;;;;;41.97;22.37;;;;;;;5.52;99.06;99451.53;5243061;33;34770;-85
2023/03/07 07:55:15;;;;;;;41.37;22.25;;;;;;;5.65;100.00;99451.87;5228949;33;34337;-86
2023/03/07 07:58:18;;;;;;;46.10;24.42;;;;;;;5.72;99.21;99450.16;5284888;33;34118;-86
2023/03/07 08:01:23;;;;;;;42.10;23.65;;;;;;;5.76;99.90;99450.66;5272067;33;33677;-83
2023/03/07 08:04:26;;;;;;;43.20;24.27;;;;;;;6.02;97.06;99450.47;5274726;33;34041;-84
2023/03/07 08:07:29;;;;;;;41.42;22.85;;;;;;;6.16;96.66;99446.25;5268058;33;33474;-84
2023/03/07 08:10:32;;;;;;;42.10;24.12;;;;;;;6.41;93.84;99455.84;5261127;33;35553;-84
2023/03/07 08:13:35;;;;;;;41.42;19.67;;;;;;;6.64;93.95;99444.37;5262353;33;34032;-84
2023/03/07 08:16:38;;;;;;;33.30;18.73;;;;;;;6.65;89.90;99451.41;5250646;33;33991;-84
2023/03/07 08:19:40;;;;;;;34.33;17.90;;;;;;;6.70;84.87;99451.69;5249595;33;33947;-84
2023/03/07 08:22:43;;;;;;;37.92;18.37;;;;;;;6.81;85.17;99451.28;5278376;33;33769;-84
2023/03/07 08:25:46;;;;;;;28.75;16.33;;;;;;;6.98;85.13;99455.53;5254512;33;33901;-84
2023/03/07 08:28:49;;;;;;;27.20;15.65;;;;;;;7.07;77.08;99453.63;5282894;33;34015;-84
2023/03/07 08:31:53;;;;;;;26.80;15.02;;;;;;;7.37;77.65;99451.06;5263344;33;34061;-84
2023/03/07 08:34:56;;;;;;;28.75;15.77;;;;;;;7.46;75.60;99452.69;5264077;33;33926;-83
2023/03/07 08:37:59;;;;;;;27.08;15.10;;;;;;;7.46;75.56;99456.19;5286211;33;34297;-84
2023/03/07 08:41:04;;;;;;;28.40;16.30;;;;;;;7.77;75.60;99457.09;5279811;33;35512;-82
2023/03/07 08:44:06;;;;;;;27.87;12.75;;;;;;;7.91;75.93;99458.97;5274711;33;33919;-83
2023/03/07 08:47:11;;;;;;;19.75;10.93;;;;;;;7.94;68.33;99462.09;5253460;33;34192;-84
2023/03/07 08:50:14;;;;;;;22.50;12.00;;;;;;;7.61;66.74;99458.09;5278716;33;35301;-85
2023/03/07 08:53:17;;;;;;;22.15;12.18;;;;;;;7.84;69.42;99460.69;5279204;33;34040;-82
2023/03/07 08:56:20;;;;;;;22.55;12.27;;;;;;;7.78;68.08;99464.94;5276130;33;34060;-83
2023/03/07 08:59:23;;;;;;;21.83;11.55;;;;;;;7.84;65.34;99461.53;5272041;33;33857;-82
2023/03/07 09:02:27;;;;;;;23.70;12.35;;;;;;;7.92;65.74;99463.28;5283948;33;34448;-82
2023/03/07 09:05:31;;;;;;;22.13;12.40;;;;;;;7.91;65.51;99467.00;5257304;33;35379;-87
2023/03/07 09:08:35;;;;;;;22.55;13.15;;;;;;;8.02;65.93;99457.69;5281659;33;34274;-89
2023/03/07 09:11:39;;;;;;;24.65;13.60;;;;;;;8.02;66.94;99458.50;5262281;33;34109;-88
2023/03/07 09:14:42;;;;;;;26.98;14.50;;;;;;;7.94;65.99;99463.94;5259637;33;34774;-84
2023/03/07 09:17:45;;;;;;;24.80;14.27;;;;;;;7.68;67.70;99457.16;5262619;33;34905;-83
2023/03/07 09:20:48;;;;;;;27.42;15.60;;;;;;;7.70;68.36;99463.16;5259585;33;34578;-83
2023/03/07 09:23:51;;;;;;;31.35;13.80;;;;;;;7.39;69.59;99465.13;5276867;33;33982;-83
2023/03/07 09:26:53;;;;;;;24.10;12.65;;;;;;;7.36;72.22;99458.28;5259665;33;34052;-83
2023/03/07 09:29:56;;;;;;;23.55;13.20;;;;;;;7.66;67.97;99464.56;5257423;33;34855;-83
2023/03/07 09:32:59;;;;;;;23.62;12.13;;;;;;;7.63;67.61;99459.53;5274607;33;34640;-83
2023/03/07 09:36:06;;;;;;;21.67;10.70;;;;;;;7.77;66.06;99451.72;5277249;33;34007;-83
2023/03/07 09:39:13;;;;;;;18.73;10.55;;;;;;;7.99;62.79;99456.19;5285498;33;34916;-84
2023/03/07 09:42:26;;;;;;;21.25;10.73;;;;;;;8.13;61.84;99462.56;5253583;33;34876;-85
2023/03/07 09:45:47;;;;;;;18.05;10.10;;;;;;;8.00;62.75;99459.69;5264167;33;34635;-85
2023/03/07 09:48:59;;;;;;;23.25;11.05;;;;;;;8.35;60.47;99455.44;5277370;33;34199;-84
2023/03/07 09:52:13;;;;;;;20.77;10.63;;;;;;;8.38;59.90;99452.37;5277581;33;35131;-84
2023/03/07 09:55:19;;;;;;;21.08;11.63;;;;;;;8.22;60.82;99460.63;5282494;33;34152;-84
2023/03/07 09:58:24;;;;;;;23.95;11.95;;;;;;;8.34;62.00;99454.63;5273247;33;35178;-84
2023/03/07 10:01:32;;;;;;;22.83;11.00;;;;;;;8.38;62.61;99455.06;5274012;33;33402;-84
2023/03/07 10:04:41;;;;;;;22.02;10.80;;;;;;;8.45;60.92;99453.31;5276133;33;34913;-83
2023/03/07 10:07:44;;;;;;;19.73;9.40;;;;;;;8.62;58.55;99451.28;5271839;33;34255;-83
2023/03/07 10:11:10;;;;;;;18.10;9.20;;;;;;;8.82;57.04;99451.50;5249403;33;34095;-83
2023/03/07 10:14:42;;;;;;;17.17;9.20;;;;;;;9.06;55.18;99453.84;5306764;33;35521;-83
2023/03/07 10:17:55;;;;;;;18.25;8.43;;;;;;;9.12;51.29;99456.78;5235932;33;35392;-83
2023/03/07 10:21:20;;;;;;;19.12;8.88;;;;;;;9.40;50.82;99457.69;5251404;33;33277;-84
2023/03/07 10:24:42;;;;;;;15.80;8.75;;;;;;;9.32;49.37;99464.00;5276520;33;35076;-84
2023/03/07 10:27:49;;;;;;;16.83;8.43;;;;;;;9.58;48.91;99453.69;5274371;33;34461;-84
2023/03/07 10:30:58;;;;;;;11.88;6.12;;;;;;;9.87;48.47;99450.81;5276634;33;33871;-83
2023/03/07 10:34:15;;;;;;;9.60;5.80;;;;;;;9.48;46.90;99437.94;5275393;33;34049;-84
2023/03/07 10:37:44;;;;;;;8.82;5.32;;;;;;;9.32;48.35;99455.94;5273821;33;34530;-84
2023/03/07 10:40:53;;;;;;;11.32;6.07;;;;;;;9.75;46.36;99447.03;5261498;33;34007;-84
2023/03/07 10:43:57;;;;;;;12.48;6.97;;;;;;;10.05;45.03;99447.63;5272878;33;34885;-84
2023/03/07 10:46:59;;;;;;;12.43;6.72;;;;;;;10.14;45.67;99438.38;5274216;33;33818;-84
2023/03/07 10:50:19;;;;;;;15.73;8.57;;;;;;;10.56;45.46;99430.31;5264122;33;34728;-84
2023/03/07 10:53:27;;;;;;;18.33;8.73;;;;;;;10.52;46.04;99432.59;5275554;33;33907;-85
2023/03/07 10:56:30;;;;;;;17.15;8.23;;;;;;;10.71;45.47;99425.66;5274517;33;34699;-84
2023/03/07 10:59:36;;;;;;;15.77;8.43;;;;;;;10.74;46.96;99424.41;5267706;33;34575;-84
2023/03/07 11:02:45;;;;;;;16.02;7.78;;;;;;;10.23;46.12;99421.03;5280146;33;34052;-83
2023/03/07 11:05:48;;;;;;;18.92;9.45;;;;;;;10.50;47.05;99412.28;5276108;33;35545;-84
2023/03/07 11:08:51;;;;;;;13.60;7.95;;;;;;;10.72;46.08;99407.63;5252347;33;34897;-84
2023/03/07 11:11:57;;;;;;;14.60;7.90;;;;;;;10.80;45.42;99405.56;5264753;33;35092;-83
2023/03/07 11:15:03;;;;;;;12.27;7.53;;;;;;;10.77;45.08;99408.69;5268946;33;34705;-84
2023/03/07 11:18:37;;;;;;;13.05;8.10;;;;;;;10.60;45.01;99396.63;5287717;33;33745;-84
2023/03/07 11:21:40;;;;;;;15.15;7.78;;;;;;;10.43;45.49;99391.56;5291731;33;35194;-84
2023/03/07 11:25:06;;;;;;;14.05;7.50;;;;;;;10.42;46.19;99387.22;5266626;33;34420;-84
2023/03/07 11:28:28;;;;;;;16.80;8.18;;;;;;;10.31;46.34;99378.91;5275563;33;34462;-83
2023/03/07 11:31:44;;;;;;;14.48;8.23;;;;;;;10.19;47.09;99367.84;5284486;33;33927;-84
2023/03/07 11:35:06;;;;;;;16.42;8.70;;;;;;;10.02;46.70;99363.84;5286125;33;34308;-83
2023/03/07 11:38:46;;;;;;;14.05;8.50;;;;;;;9.84;47.63;99349.06;5261709;33;32752;-85
2023/03/07 11:41:56;;;;;;;16.33;9.18;;;;;;;10.41;47.29;99344.38;5279257;33;34185;-84
2023/03/07 11:45:28;;;;;;;17.23;10.32;;;;;;;10.85;46.42;99343.03;5292000;33;34171;-84
2023/03/07 11:48:50;;;;;;;17.80;9.52;;;;;;;10.89;46.37;99339.72;5285831;33;34010;-84
2023/03/07 11:52:00;;;;;;;16.67;10.00;;;;;;;10.67;47.93;99343.63;5293003;33;34998;-84
2023/03/07 11:55:14;;;;;;;17.92;9.98;;;;;;;10.50;48.08;99342.31;5284603;33;33972;-83
2023/03/07 11:58:29;;;;;;;20.20;11.20;;;;;;;9.88;54.39;99334.19;5279562;33;34251;-83
2023/03/07 12:02:10;;;;;;;18.50;11.45;;;;;;;9.56;58.91;99335.66;5258704;33;34898;-83
2023/03/07 12:05:34;;;;;;;19.25;11.07;;;;;;;9.15;61.86;99327.50;5277571;33;34221;-83
2023/03/07 12:08:40;;;;;;;18.83;10.50;;;;;;;9.09;63.37;99332.63;5278636;33;34130;-83
2023/03/07 12:12:15;;;;;;;18.98;10.75;;;;;;;8.71;65.48;99336.63;5275581;33;33911;-83
2023/03/07 12:15:32;;;;;;;22.05;11.80;;;;;;;8.73;66.40;99339.94;5277850;33;34325;-83
2023/03/07 12:18:57;;;;;;;20.40;11.88;;;;;;;8.61;67.94;99327.03;5280645;33;33827;-83
2023/03/07 12:22:00;;;;;;;19.62;10.45;;;;;;;8.73;66.50;99316.63;5298515;33;33817;-82
2023/03/07 12:25:28;;;;;;;21.08;10.55;;;;;;;8.90;64.87;99316.38;5296837;33;34760;-83
2023/03/07 12:28:49;;;;;;;18.27;9.82;;;;;;;9.19;63.61;99318.06;5269491;33;34068;-83
2023/03/07 12:31:57;;;;;;;19.42;9.85;;;;;;;9.06;64.59;99324.97;5258451;33;32397;-87
2023/03/07 12:35:38;;;;;;;20.98;9.48;;;;;;;9.02;64.08;99321.00;5263983;33;33701;-84
2023/03/07 12:38:58;;;;;;;19.35;9.95;;;;;;;8.74;64.86;99314.75;5265368;33;33978;-83
2023/03/07 12:42:32;;;;;;;15.77;9.18;;;;;;;8.44;64.69;99312.19;5277512;33;35368;-84
2023/03/07 12:45:44;;;;;;;16.70;8.60;;;;;;;8.69;65.19;99314.50;5275547;33;33788;-83
2023/03/07 12:49:37;;;;;;;17.23;9.27;;;;;;;8.67;63.63;99303.97;5281677;33;34968;-83
2023/03/07 12:53:17;;;;;;;18.75;8.48;;;;;;;8.56;63.45;99305.31;5235787;33;34307;-87
2023/03/07 12:56:26;;;;;;;15.68;9.13;;;;;;;8.28;64.45;99307.06;5265696;33;34332;-84
2023/03/07 12:59:34;;;;;;;13.40;7.37;;;;;;;8.38;64.04;99307.56;5284129;33;35081;-83
2023/03/07 13:02:44;;;;;;;13.27;7.82;;;;;;;8.36;59.74;99317.66;5289732;33;35190;-84
2023/03/07 13:05:48;;;;;;;16.83;8.25;;;;;;;8.27;59.55;99310.75;5302226;33;35747;-84
2023/03/07 13:08:57;;;;;;;12.00;7.50;;;;;;;8.39;59.82;99306.56;5254709;33;34432;-84
2023/03/07 13:12:19;;;;;;;13.70;7.43;;;;;;;8.44;60.90;99311.38;5279312;33;34014;-83
2023/03/07 13:15:21;;;;;;;14.65;7.55;;;;;;;8.33;60.02;99307.31;5288076;33;35437;-83
2023/03/07 13:18:27;;;;;;;13.25;7.57;;;;;;;8.05;62.29;99320.59;5277340;33;34992;-83
2023/03/07 13:21:31;;;;;;;13.48;7.50;;;;;;;7.94;63.04;99320.06;5278852;33;34314;-83
2023/03/07 13:24:39;;;;;;;14.93;7.25;;;;;;;7.91;65.09;99320.44;5268475;33;33561;-83
2023/03/07 13:27:46;;;;;;;14.20;7.37;;;;;;;7.68;64.82;99331.25;5261997;33;33672;-85
2023/03/07 13:31:25;;;;;;;14.05;7.28;;;;;;;7.24;67.63;99326.69;5287857;33;33976;-85
2023/03/07 13:34:50;;;;;;;17.03;8.63;;;;;;;7.24;68.71;99328.53;5267094;33;34154;-84
2023/03/07 13:38:18;;;;;;;14.73;7.18;;;;;;;7.41;68.55;99329.22;5282956;33;34890;-84
2023/03/07 13:41:49;;;;;;;16.73;8.43;;;;;;;7.12;69.01;99328.16;5283358;33;34261;-84
2023/03/07 13:44:53;;;;;;;14.38;8.07;;;;;;;7.17;69.42;99323.09;5265829;33;33904;-84
2023/03/07 13:47:55;;;;;;;16.52;8.85;;;;;;;7.11;70.21;99323.81;5263682;33;33775;-84
2023/03/07 13:51:01;;;;;;;15.73;7.97;;;;;;;6.93;71.21;99312.59;5266014;33;33770;-84
2023/03/07 13:54:10;;;;;;;15.82;7.75;;;;;;;7.13;70.86;99312.91;5272086;33;35225;-84
2023/03/07 13:57:19;;;;;;;17.25;8.05;;;;;;;7.16;70.72;99304.53;5299368;33;34160;-84
2023/03/07 14:00:31;;;;;;;15.43;8.05;;;;;;;7.19;70.12;99306.81;5293432;33;35335;-84
2023/03/07 14:03:41;;;;;;;16.00;8.82;;;;;;;7.07;70.48;99303.75;5308271;33;35386;-85
2023/03/07 14:06:57;;;;;;;16.48;7.78;;;;;;;7.04;71.00;99296.94;5297312;33;35309;-85
2023/03/07 14:10:28;;;;;;;17.50;8.48;;;;;;;7.25;70.33;99295.38;5281896;33;33832;-85
2023/03/07 14:13:58;;;;;;;15.20;7.78;;;;;;;7.47;69.32;99290.97;5250926;33;33054;-89
2023/03/07 14:17:03;;;;;;;;;;;;;;;7.68;67.90;99282.19;5275791;33;35067;-85
2023/03/07 14:20:10;;;;;;;19.37;8.80;;;;;;;7.85;69.08;99280.97;5282045;33;35247;-85
2023/03/07 14:23:51;;;;;;;17.17;8.93;;;;;;;7.74;67.95;99276.09;5274473;33;34498;-86
2023/03/07 14:26:56;;;;;;;16.95;9.05;;;;;;;7.63;67.69;99260.50;5254154;33;34475;-84
2023/03/07 14:29:59;;;;;;;16.25;8.05;;;;;;;7.33;68.51;99265.84;5273644;33;34148;-84
2023/03/07 14:33:02;;;;;;;16.52;9.57;;;;;;;7.21;69.57;99265.47;5259621;33;33846;-84
2023/03/07 14:36:20;;;;;;;18.58;9.10;;;;;;;7.32;68.22;99266.88;5265874;33;33819;-84
2023/03/07 14:39:28;;;;;;;16.80;8.30;;;;;;;7.35;67.88;99268.38;5277753;33;33987;-84
2023/03/07 14:43:07;;;;;;;20.73;9.80;;;;;;;7.36;69.43;99253.94;5277865;33;34267;-83
2023/03/07 14:46:58;;;;;;;17.27;8.00;;;;;;;7.40;69.81;99265.94;5280209;33;35579;-84
2023/03/07 14:50:38;;;;;;;19.55;8.65;;;;;;;7.48;69.37;99261.31;5257953;33;34076;-84
2023/03/07 14:53:41;;;;;;;;;;;;;;;7.39;71.12;99262.44;5243887;33;33951;-84
2023/03/07 14:56:48;;;;;;;20.20;9.27;;;;;;;7.29;72.58;99258.41;5255840;33;34175;-84
2023/03/07 15:00:23;;;;;;;20.62;9.77;;;;;;;7.25;74.40;99260.59;5233058;33;138346;-84
2023/03/07 15:03:27;;;;;;;19.83;9.88;;;;;;;7.11;74.34;99264.06;5271171;33;34571;-84
2023/03/07 15:06:30;;;;;;;19.33;9.95;;;;;;;6.87;75.92;99262.47;5249147;33;34216;-84
2023/03/07 15:09:33;;;;;;;20.52;10.05;;;;;;;6.76;77.00;99253.87;5251514;33;34935;-84
2023/03/07 15:12:36;;;;;;;19.23;10.52;;;;;;;6.72;77.49;99259.78;5246229;33;33268;-84
2023/03/07 15:15:45;;;;;;;21.65;10.60;;;;;;;6.57;79.72;99260.56;5248187;33;33814;-85
2023/03/07 15:18:54;;;;;;;22.60;10.68;;;;;;;6.58;80.85;99248.88;5259127;33;34572;-84
2023/03/07 15:22:01;;;;;;;19.60;10.13;;;;;;;6.57;80.92;99257.06;5258897;33;34126;-84
2023/03/07 15:25:05;;;;;;;20.00;10.63;;;;;;;6.60;82.10;99254.03;5257962;33;33491;-84
2023/03/07 15:28:31;;;;;;;21.75;11.25;;;;;;;6.52;85.54;99249.59;5242199;33;34182;-89
2023/03/07 15:32:00;;;;;;;21.65;9.70;;;;;;;6.43;86.15;99249.81;5252981;33;35242;-84
2023/03/07 15:35:03;;;;;;;23.02;9.90;;;;;;;6.26;87.35;99244.59;5252897;33;34942;-85
2023/03/07 15:38:20;;;;;;;20.98;9.88;;;;;;;6.30;87.77;99248.56;5263010;33;34382;-84
2023/03/07 15:41:35;;;;;;;17.10;9.30;;;;;;;6.27;88.04;99242.75;5258954;33;35159;-84
2023/03/07 15:44:37;;;;;;;16.15;8.18;;;;;;;6.17;88.08;99234.94;5259929;33;34172;-83
2023/03/07 15:47:40;;;;;;;15.82;8.10;;;;;;;6.17;88.07;99236.78;5243833;33;34596;-85
2023/03/07 15:50:51;;;;;;;19.58;7.72;;;;;;;5.97;93.40;99234.59;5259458;33;34074;-84
2023/03/07 15:53:57;;;;;;;16.48;7.53;;;;;;;5.73;96.99;99232.84;5270788;33;34301;-84
2023/03/07 15:57:06;;;;;;;16.37;8.85;;;;;;;5.63;96.61;99224.22;5263239;33;35139;-85
2023/03/07 16:00:37;;;;;;;16.85;8.07;;;;;;;5.44;100.00;99218.31;5272968;33;34353;-84
2023/03/07 16:03:51;;;;;;;17.25;7.90;;;;;;;5.52;98.56;99219.28;5256039;33;33940;-84
2023/03/07 16:06:54;;;;;;;15.60;7.72;;;;;;;5.60;97.80;99211.22;5255959;33;34262;-85
2023/03/07 16:09:57;;;;;;;13.30;8.05;;;;;;;5.63;98.36;99201.03;5255901;33;34602;-89
2023/03/07 16:13:00;;;;;;;16.23;8.30;;;;;;;5.57;98.30;99201.72;5255790;33;34290;-88
2023/03/07 16:16:25;;;;;;;15.93;8.05;;;;;;;5.71;99.13;99194.00;5254082;33;33917;-89
2023/03/07 16:19:29;;;;;;;15.70;8.02;;;;;;;5.82;96.74;99202.44;5254865;33;34092;-85
2023/03/07 16:22:32;;;;;;;27.15;10.23;;;;;;;5.80;96.54;99195.59;5242366;33;34907;-85
2023/03/07 16:25:34;;;;;;;15.55;8.30;;;;;;;5.75;96.08;99196.13;5255205;33;33912;-85
2023/03/07 16:28:38;;;;;;;19.02;8.95;;;;;;;5.70;97.23;99203.81;5242817;33;33953;-85
2023/03/07 16:31:41;;;;;;;16.80;7.93;;;;;;;5.65;96.11;99195.53;5254429;33;34043;-85
2023/03/07 16:34:45;;;;;;;15.68;8.50;;;;;;;5.62;95.89;99195.88;5270450;33;34911;-85
2023/03/07 16:37:47;;;;;;;16.25;7.72;;;;;;;5.53;96.44;99171.06;5267156;33;34950;-85
2023/03/07 16:40:50;;;;;;;19.42;8.48;;;;;;;5.35;98.00;99171.31;5242189;33;34012;-85
2023/03/07 16:43:57;;;;;;;17.58;8.15;;;;;;;5.23;98.81;99181.56;5254505;33;34074;-84
2023/03/07 16:47:07;;;;;;;17.95;8.15;;;;;;;5.21;99.51;99188.88;5255287;33;34725;-85
2023/03/07 16:50:18;;;;;;;16.58;8.00;;;;;;;5.33;100.00;99173.31;5255286;33;34724;-85
2023/03/07 16:53:22;;;;;;;18.27;8.75;;;;;;;5.31;99.01;99175.31;5255304;33;33764;-85
2023/03/07 16:56:34;;;;;;;15.95;8.60;;;;;;;5.25;99.30;99169.84;5255317;33;33969;-84
